sensor_id;sensor_type;location;lat;lon;timestamp;P1;durP1;ratioP1;P2;durP2;ratioP2
53022;SDS011;38913;44.338;11.206;2023-09-07T00:00:17;4.28;;;3.88;;
53022;SDS011;38913;44.338;11.206;2023-09-07T00:02:42;4.95;;;3.67;;
53022;SDS011;38913;44.338;11.206;2023-09-07T00:05:08;5.88;;;3.90;;
53022;SDS011;38913;44.338;11.206;2023-09-07T00:07:33;6.32;;;4.55;;
53022;SDS011;38913;44.338;11.206;2023-09-07T00:09:59;6.20;;;3.88;;
53022;SDS011;38913;44.338;11.206;2023-09-07T00:12:24;4.63;;;3.80;;
53022;SDS011;38913;44.338;11.206;2023-09-07T00:14:50;5.22;;;4.28;;
53022;SDS011;38913;44.338;11.206;2023-09-07T00:17:15;4.63;;;3.78;;
53022;SDS011;38913;44.338;11.206;2023-09-07T00:19:40;5.07;;;3.97;;
53022;SDS011;38913;44.338;11.206;2023-09-07T00:22:06;5.23;;;4.03;;
53022;SDS011;38913;44.338;11.206;2023-09-07T00:24:31;6.03;;;3.70;;
53022;SDS011;38913;44.338;11.206;2023-09-07T00:26:56;4.57;;;3.92;;
53022;SDS011;38913;44.338;11.206;2023-09-07T00:29:22;4.78;;;3.80;;
53022;SDS011;38913;44.338;11.206;2023-09-07T00:31:47;5.50;;;4.80;;
53022;SDS011;38913;44.338;11.206;2023-09-07T00:34:12;4.50;;;3.90;;
53022;SDS011;38913;44.338;11.206;2023-09-07T00:36:38;3.93;;;3.53;;
53022;SDS011;38913;44.338;11.206;2023-09-07T00:39:03;4.97;;;3.72;;
53022;SDS011;38913;44.338;11.206;2023-09-07T00:41:29;4.00;;;3.45;;
53022;SDS011;38913;44.338;11.206;2023-09-07T00:43:54;4.47;;;3.60;;
53022;SDS011;38913;44.338;11.206;2023-09-07T00:46:19;4.47;;;3.77;;
53022;SDS011;38913;44.338;11.206;2023-09-07T00:48:46;4.93;;;3.45;;
53022;SDS011;38913;44.338;11.206;2023-09-07T00:51:12;5.40;;;3.90;;
53022;SDS011;38913;44.338;11.206;2023-09-07T00:53:37;3.80;;;3.50;;
53022;SDS011;38913;44.338;11.206;2023-09-07T00:56:02;5.13;;;3.95;;
53022;SDS011;38913;44.338;11.206;2023-09-07T00:58:28;6.32;;;3.90;;
53022;SDS011;38913;44.338;11.206;2023-09-07T01:00:54;4.35;;;3.60;;
53022;SDS011;38913;44.338;11.206;2023-09-07T01:03:20;4.82;;;4.10;;
53022;SDS011;38913;44.338;11.206;2023-09-07T01:08:12;4.80;;;3.80;;
53022;SDS011;38913;44.338;11.206;2023-09-07T01:10:40;4.30;;;3.90;;
53022;SDS011;38913;44.338;11.206;2023-09-07T01:13:05;4.20;;;3.80;;
53022;SDS011;38913;44.338;11.206;2023-09-07T01:15:31;4.07;;;3.67;;
53022;SDS011;38913;44.338;11.206;2023-09-07T01:17:56;4.20;;;3.80;;
53022;SDS011;38913;44.338;11.206;2023-09-07T01:20:23;4.10;;;3.70;;
53022;SDS011;38913;44.338;11.206;2023-09-07T01:22:48;5.68;;;3.95;;
53022;SDS011;38913;44.338;11.206;2023-09-07T01:25:14;4.53;;;3.53;;
53022;SDS011;38913;44.338;11.206;2023-09-07T01:27:39;5.45;;;3.80;;
53022;SDS011;38913;44.338;11.206;2023-09-07T01:30:05;4.15;;;3.72;;
53022;SDS011;38913;44.338;11.206;2023-09-07T01:32:30;5.40;;;4.18;;
53022;SDS011;38913;44.338;11.206;2023-09-07T01:34:57;4.75;;;3.80;;
53022;SDS011;38913;44.338;11.206;2023-09-07T01:37:22;3.97;;;3.58;;
53022;SDS011;38913;44.338;11.206;2023-09-07T01:39:47;5.23;;;4.07;;
53022;SDS011;38913;44.338;11.206;2023-09-07T01:42:14;4.32;;;3.85;;
53022;SDS011;38913;44.338;11.206;2023-09-07T01:44:39;5.33;;;4.20;;
53022;SDS011;38913;44.338;11.206;2023-09-07T01:47:04;4.63;;;3.97;;
53022;SDS011;38913;44.338;11.206;2023-09-07T01:49:29;5.77;;;3.80;;
53022;SDS011;38913;44.338;11.206;2023-09-07T01:51:55;4.32;;;3.92;;
53022;SDS011;38913;44.338;11.206;2023-09-07T01:54:23;4.10;;;3.70;;
53022;SDS011;38913;44.338;11.206;2023-09-07T01:56:48;5.78;;;3.95;;
53022;SDS011;38913;44.338;11.206;2023-09-07T01:59:13;4.63;;;3.67;;
53022;SDS011;38913;44.338;11.206;2023-09-07T02:01:39;4.80;;;3.73;;
53022;SDS011;38913;44.338;11.206;2023-09-07T02:04:05;4.75;;;4.13;;
53022;SDS011;38913;44.338;11.206;2023-09-07T02:06:30;5.35;;;4.50;;
53022;SDS011;38913;44.338;11.206;2023-09-07T02:08:56;4.97;;;3.83;;
53022;SDS011;38913;44.338;11.206;2023-09-07T02:11:21;4.97;;;4.10;;
53022;SDS011;38913;44.338;11.206;2023-09-07T02:13:47;4.80;;;3.60;;
53022;SDS011;38913;44.338;11.206;2023-09-07T02:16:12;5.53;;;3.90;;
53022;SDS011;38913;44.338;11.206;2023-09-07T02:18:37;4.40;;;3.70;;
53022;SDS011;38913;44.338;11.206;2023-09-07T02:21:05;4.00;;;3.60;;
53022;SDS011;38913;44.338;11.206;2023-09-07T02:23:33;5.20;;;3.90;;
53022;SDS011;38913;44.338;11.206;2023-09-07T02:25:58;4.90;;;3.95;;
53022;SDS011;38913;44.338;11.206;2023-09-07T02:28:24;4.30;;;3.90;;
53022;SDS011;38913;44.338;11.206;2023-09-07T02:30:50;4.43;;;3.70;;
53022;SDS011;38913;44.338;11.206;2023-09-07T02:33:15;4.35;;;3.80;;
53022;SDS011;38913;44.338;11.206;2023-09-07T02:35:40;5.67;;;3.77;;
53022;SDS011;38913;44.338;11.206;2023-09-07T02:38:05;5.40;;;3.77;;
53022;SDS011;38913;44.338;11.206;2023-09-07T02:40:31;4.15;;;3.63;;
53022;SDS011;38913;44.338;11.206;2023-09-07T02:42:56;4.43;;;3.23;;
53022;SDS011;38913;44.338;11.206;2023-09-07T02:45:21;4.57;;;4.00;;
53022;SDS011;38913;44.338;11.206;2023-09-07T02:47:47;4.60;;;3.87;;
53022;SDS011;38913;44.338;11.206;2023-09-07T02:50:14;4.05;;;3.67;;
53022;SDS011;38913;44.338;11.206;2023-09-07T02:52:40;5.32;;;4.10;;
53022;SDS011;38913;44.338;11.206;2023-09-07T02:55:06;4.63;;;3.93;;
53022;SDS011;38913;44.338;11.206;2023-09-07T02:57:31;4.75;;;4.25;;
53022;SDS011;38913;44.338;11.206;2023-09-07T02:59:57;4.70;;;3.97;;
53022;SDS011;38913;44.338;11.206;2023-09-07T03:02:22;4.10;;;3.70;;
53022;SDS011;38913;44.338;11.206;2023-09-07T03:04:47;4.53;;;3.70;;
53022;SDS011;38913;44.338;11.206;2023-09-07T03:07:13;4.57;;;4.18;;
53022;SDS011;38913;44.338;11.206;2023-09-07T03:09:38;5.43;;;4.30;;
53022;SDS011;38913;44.338;11.206;2023-09-07T03:12:03;5.23;;;4.07;;
53022;SDS011;38913;44.338;11.206;2023-09-07T03:14:29;5.13;;;4.03;;
53022;SDS011;38913;44.338;11.206;2023-09-07T03:16:54;4.53;;;3.67;;
53022;SDS011;38913;44.338;11.206;2023-09-07T03:19:19;5.07;;;4.40;;
53022;SDS011;38913;44.338;11.206;2023-09-07T03:21:44;4.90;;;4.17;;
53022;SDS011;38913;44.338;11.206;2023-09-07T03:24:10;5.80;;;4.27;;
53022;SDS011;38913;44.338;11.206;2023-09-07T03:26:35;5.30;;;4.40;;
53022;SDS011;38913;44.338;11.206;2023-09-07T03:29:00;4.47;;;4.07;;
53022;SDS011;38913;44.338;11.206;2023-09-07T03:31:25;5.27;;;4.37;;
53022;SDS011;38913;44.338;11.206;2023-09-07T03:33:50;5.07;;;4.10;;
53022;SDS011;38913;44.338;11.206;2023-09-07T03:36:16;4.43;;;3.80;;
53022;SDS011;38913;44.338;11.206;2023-09-07T03:38:41;4.60;;;4.10;;
53022;SDS011;38913;44.338;11.206;2023-09-07T03:41:07;4.63;;;3.95;;
53022;SDS011;38913;44.338;11.206;2023-09-07T03:43:32;5.03;;;4.30;;
53022;SDS011;38913;44.338;11.206;2023-09-07T03:45:57;5.73;;;3.70;;
53022;SDS011;38913;44.338;11.206;2023-09-07T03:48:23;5.07;;;3.80;;
53022;SDS011;38913;44.338;11.206;2023-09-07T03:50:48;4.43;;;3.97;;
53022;SDS011;38913;44.338;11.206;2023-09-07T03:53:13;4.80;;;3.70;;
53022;SDS011;38913;44.338;11.206;2023-09-07T03:55:42;5.13;;;3.97;;
53022;SDS011;38913;44.338;11.206;2023-09-07T03:58:08;4.55;;;4.05;;
53022;SDS011;38913;44.338;11.206;2023-09-07T04:00:34;5.05;;;4.43;;
53022;SDS011;38913;44.338;11.206;2023-09-07T04:02:59;5.43;;;4.27;;
53022;SDS011;38913;44.338;11.206;2023-09-07T04:05:25;4.97;;;4.20;;
53022;SDS011;38913;44.338;11.206;2023-09-07T04:07:50;5.17;;;4.23;;
53022;SDS011;38913;44.338;11.206;2023-09-07T04:10:15;5.22;;;4.00;;
53022;SDS011;38913;44.338;11.206;2023-09-07T04:12:41;4.57;;;3.97;;
53022;SDS011;38913;44.338;11.206;2023-09-07T04:15:06;5.18;;;4.03;;
53022;SDS011;38913;44.338;11.206;2023-09-07T04:17:31;6.20;;;4.43;;
53022;SDS011;38913;44.338;11.206;2023-09-07T04:20:05;5.00;;;4.50;;
53022;SDS011;38913;44.338;11.206;2023-09-07T04:22:30;4.97;;;4.10;;
53022;SDS011;38913;44.338;11.206;2023-09-07T04:24:55;5.80;;;4.43;;
53022;SDS011;38913;44.338;11.206;2023-09-07T04:27:21;4.60;;;4.07;;
53022;SDS011;38913;44.338;11.206;2023-09-07T04:29:46;5.22;;;4.15;;
53022;SDS011;38913;44.338;11.206;2023-09-07T04:32:12;5.85;;;4.20;;
53022;SDS011;38913;44.338;11.206;2023-09-07T04:34:37;4.75;;;3.97;;
53022;SDS011;38913;44.338;11.206;2023-09-07T04:37:02;4.57;;;3.93;;
53022;SDS011;38913;44.338;11.206;2023-09-07T04:39:27;4.72;;;4.07;;
53022;SDS011;38913;44.338;11.206;2023-09-07T04:41:53;4.43;;;3.87;;
53022;SDS011;38913;44.338;11.206;2023-09-07T04:44:18;5.67;;;3.93;;
53022;SDS011;38913;44.338;11.206;2023-09-07T04:46:44;5.90;;;4.18;;
53022;SDS011;38913;44.338;11.206;2023-09-07T04:49:09;6.65;;;3.80;;
53022;SDS011;38913;44.338;11.206;2023-09-07T04:51:34;8.33;;;4.30;;
53022;SDS011;38913;44.338;11.206;2023-09-07T04:53:59;5.33;;;4.13;;
53022;SDS011;38913;44.338;11.206;2023-09-07T04:56:25;4.90;;;4.20;;
53022;SDS011;38913;44.338;11.206;2023-09-07T04:58:50;5.28;;;4.22;;
53022;SDS011;38913;44.338;11.206;2023-09-07T05:01:16;10.52;;;4.35;;
53022;SDS011;38913;44.338;11.206;2023-09-07T05:03:41;9.70;;;4.40;;
53022;SDS011;38913;44.338;11.206;2023-09-07T05:06:06;5.97;;;3.87;;
53022;SDS011;38913;44.338;11.206;2023-09-07T05:08:32;9.13;;;4.20;;
53022;SDS011;38913;44.338;11.206;2023-09-07T05:11:03;14.65;;;5.20;;
53022;SDS011;38913;44.338;11.206;2023-09-07T05:13:29;6.47;;;4.35;;
53022;SDS011;38913;44.338;11.206;2023-09-07T05:15:54;11.10;;;4.38;;
53022;SDS011;38913;44.338;11.206;2023-09-07T05:18:20;10.60;;;4.25;;
53022;SDS011;38913;44.338;11.206;2023-09-07T05:20:46;11.38;;;4.82;;
53022;SDS011;38913;44.338;11.206;2023-09-07T05:23:12;12.32;;;4.50;;
53022;SDS011;38913;44.338;11.206;2023-09-07T05:25:42;11.30;;;4.40;;
53022;SDS011;38913;44.338;11.206;2023-09-07T05:28:08;8.27;;;4.30;;
53022;SDS011;38913;44.338;11.206;2023-09-07T05:30:33;6.00;;;3.83;;
53022;SDS011;38913;44.338;11.206;2023-09-07T05:32:58;6.40;;;3.30;;
53022;SDS011;38913;44.338;11.206;2023-09-07T05:35:23;8.03;;;3.40;;
53022;SDS011;38913;44.338;11.206;2023-09-07T05:37:52;8.18;;;3.60;;
53022;SDS011;38913;44.338;11.206;2023-09-07T05:40:18;8.73;;;3.30;;
53022;SDS011;38913;44.338;11.206;2023-09-07T05:42:43;8.30;;;3.70;;
53022;SDS011;38913;44.338;11.206;2023-09-07T05:45:08;6.97;;;3.13;;
53022;SDS011;38913;44.338;11.206;2023-09-07T05:47:33;5.18;;;2.75;;
53022;SDS011;38913;44.338;11.206;2023-09-07T05:49:59;4.53;;;2.97;;
53022;SDS011;38913;44.338;11.206;2023-09-07T05:52:24;3.00;;;2.70;;
53022;SDS011;38913;44.338;11.206;2023-09-07T05:54:49;4.60;;;2.80;;
53022;SDS011;38913;44.338;11.206;2023-09-07T05:57:14;4.60;;;3.00;;
53022;SDS011;38913;44.338;11.206;2023-09-07T05:59:39;3.33;;;2.97;;
53022;SDS011;38913;44.338;11.206;2023-09-07T06:02:05;6.87;;;2.87;;
53022;SDS011;38913;44.338;11.206;2023-09-07T06:04:30;3.58;;;2.63;;
53022;SDS011;38913;44.338;11.206;2023-09-07T06:06:55;3.53;;;2.70;;
53022;SDS011;38913;44.338;11.206;2023-09-07T06:09:20;2.83;;;2.43;;
53022;SDS011;38913;44.338;11.206;2023-09-07T06:11:46;3.47;;;2.50;;
53022;SDS011;38913;44.338;11.206;2023-09-07T06:14:11;4.80;;;2.40;;
53022;SDS011;38913;44.338;11.206;2023-09-07T06:16:36;3.05;;;2.70;;
53022;SDS011;38913;44.338;11.206;2023-09-07T06:19:02;7.13;;;3.28;;
53022;SDS011;38913;44.338;11.206;2023-09-07T06:21:27;3.23;;;2.60;;
53022;SDS011;38913;44.338;11.206;2023-09-07T06:23:53;4.80;;;2.83;;
53022;SDS011;38913;44.338;11.206;2023-09-07T06:26:18;3.22;;;2.42;;
53022;SDS011;38913;44.338;11.206;2023-09-07T06:28:44;3.50;;;2.95;;
53022;SDS011;38913;44.338;11.206;2023-09-07T06:31:10;4.10;;;2.50;;
53022;SDS011;38913;44.338;11.206;2023-09-07T06:33:35;9.23;;;2.93;;
53022;SDS011;38913;44.338;11.206;2023-09-07T06:36:00;8.83;;;4.03;;
53022;SDS011;38913;44.338;11.206;2023-09-07T06:38:27;5.43;;;2.65;;
53022;SDS011;38913;44.338;11.206;2023-09-07T06:40:52;4.50;;;2.97;;
53022;SDS011;38913;44.338;11.206;2023-09-07T06:43:18;2.43;;;2.23;;
53022;SDS011;38913;44.338;11.206;2023-09-07T06:45:43;2.88;;;2.53;;
53022;SDS011;38913;44.338;11.206;2023-09-07T06:48:09;4.50;;;2.75;;
53022;SDS011;38913;44.338;11.206;2023-09-07T06:50:34;3.50;;;2.53;;
53022;SDS011;38913;44.338;11.206;2023-09-07T06:52:59;3.15;;;2.20;;
53022;SDS011;38913;44.338;11.206;2023-09-07T06:55:24;3.53;;;2.37;;
53022;SDS011;38913;44.338;11.206;2023-09-07T06:57:50;3.77;;;2.40;;
53022;SDS011;38913;44.338;11.206;2023-09-07T07:00:15;5.20;;;2.70;;
53022;SDS011;38913;44.338;11.206;2023-09-07T07:02:40;9.03;;;2.77;;
53022;SDS011;38913;44.338;11.206;2023-09-07T07:05:06;4.63;;;2.40;;
53022;SDS011;38913;44.338;11.206;2023-09-07T07:07:31;4.57;;;2.60;;
53022;SDS011;38913;44.338;11.206;2023-09-07T07:09:56;2.60;;;2.23;;
53022;SDS011;38913;44.338;11.206;2023-09-07T07:12:21;4.10;;;2.13;;
53022;SDS011;38913;44.338;11.206;2023-09-07T07:14:47;2.80;;;2.50;;
53022;SDS011;38913;44.338;11.206;2023-09-07T07:17:12;4.67;;;2.27;;
53022;SDS011;38913;44.338;11.206;2023-09-07T07:19:37;2.57;;;2.37;;
53022;SDS011;38913;44.338;11.206;2023-09-07T07:22:03;3.72;;;2.75;;
53022;SDS011;38913;44.338;11.206;2023-09-07T07:24:28;4.60;;;2.23;;
53022;SDS011;38913;44.338;11.206;2023-09-07T07:26:53;4.27;;;2.50;;
53022;SDS011;38913;44.338;11.206;2023-09-07T07:29:18;2.97;;;2.13;;
53022;SDS011;38913;44.338;11.206;2023-09-07T07:31:45;4.07;;;2.42;;
53022;SDS011;38913;44.338;11.206;2023-09-07T07:34:10;2.43;;;2.13;;
53022;SDS011;38913;44.338;11.206;2023-09-07T07:36:35;2.20;;;2.00;;
53022;SDS011;38913;44.338;11.206;2023-09-07T07:39:02;4.23;;;2.57;;
53022;SDS011;38913;44.338;11.206;2023-09-07T07:41:28;2.33;;;2.10;;
53022;SDS011;38913;44.338;11.206;2023-09-07T07:43:53;3.00;;;2.13;;
53022;SDS011;38913;44.338;11.206;2023-09-07T07:46:18;4.80;;;2.43;;
53022;SDS011;38913;44.338;11.206;2023-09-07T07:48:44;2.53;;;2.22;;
53022;SDS011;38913;44.338;11.206;2023-09-07T07:51:09;4.83;;;2.60;;
53022;SDS011;38913;44.338;11.206;2023-09-07T07:53:35;2.47;;;2.23;;
53022;SDS011;38913;44.338;11.206;2023-09-07T07:56:00;2.93;;;2.10;;
53022;SDS011;38913;44.338;11.206;2023-09-07T07:58:25;2.33;;;2.13;;
53022;SDS011;38913;44.338;11.206;2023-09-07T08:00:51;3.20;;;2.23;;
53022;SDS011;38913;44.338;11.206;2023-09-07T08:03:16;3.83;;;2.30;;
53022;SDS011;38913;44.338;11.206;2023-09-07T08:05:42;2.35;;;2.15;;
53022;SDS011;38913;44.338;11.206;2023-09-07T08:08:07;4.00;;;2.00;;
53022;SDS011;38913;44.338;11.206;2023-09-07T08:10:34;3.08;;;2.15;;
53022;SDS011;38913;44.338;11.206;2023-09-07T08:13:00;2.50;;;2.20;;
53022;SDS011;38913;44.338;11.206;2023-09-07T08:15:26;3.55;;;2.20;;
53022;SDS011;38913;44.338;11.206;2023-09-07T08:17:51;2.40;;;2.07;;
53022;SDS011;38913;44.338;11.206;2023-09-07T08:20:16;3.47;;;2.22;;
53022;SDS011;38913;44.338;11.206;2023-09-07T08:22:42;2.15;;;1.90;;
53022;SDS011;38913;44.338;11.206;2023-09-07T08:25:08;3.97;;;2.00;;
53022;SDS011;38913;44.338;11.206;2023-09-07T08:27:33;3.05;;;2.30;;
53022;SDS011;38913;44.338;11.206;2023-09-07T08:29:58;3.50;;;2.33;;
53022;SDS011;38913;44.338;11.206;2023-09-07T08:32:24;4.53;;;2.50;;
53022;SDS011;38913;44.338;11.206;2023-09-07T08:34:49;3.08;;;2.10;;
53022;SDS011;38913;44.338;11.206;2023-09-07T08:37:15;3.90;;;2.45;;
53022;SDS011;38913;44.338;11.206;2023-09-07T08:39:41;8.10;;;3.17;;
53022;SDS011;38913;44.338;11.206;2023-09-07T08:42:06;3.47;;;2.53;;
53022;SDS011;38913;44.338;11.206;2023-09-07T08:44:32;3.40;;;2.65;;
53022;SDS011;38913;44.338;11.206;2023-09-07T08:46:58;4.15;;;2.80;;
53022;SDS011;38913;44.338;11.206;2023-09-07T08:49:25;3.20;;;2.80;;
53022;SDS011;38913;44.338;11.206;2023-09-07T08:51:50;3.25;;;2.50;;
53022;SDS011;38913;44.338;11.206;2023-09-07T08:54:16;3.45;;;2.92;;
53022;SDS011;38913;44.338;11.206;2023-09-07T08:56:43;4.40;;;3.00;;
53022;SDS011;38913;44.338;11.206;2023-09-07T08:59:09;4.75;;;2.80;;
53022;SDS011;38913;44.338;11.206;2023-09-07T09:01:34;3.90;;;2.97;;
53022;SDS011;38913;44.338;11.206;2023-09-07T09:04:00;3.83;;;2.70;;
53022;SDS011;38913;44.338;11.206;2023-09-07T09:06:25;4.30;;;3.15;;
53022;SDS011;38913;44.338;11.206;2023-09-07T09:08:54;8.95;;;3.42;;
53022;SDS011;38913;44.338;11.206;2023-09-07T09:11:19;3.63;;;3.15;;
53022;SDS011;38913;44.338;11.206;2023-09-07T09:13:45;3.95;;;2.97;;
53022;SDS011;38913;44.338;11.206;2023-09-07T09:16:11;4.10;;;3.20;;
53022;SDS011;38913;44.338;11.206;2023-09-07T09:18:38;4.63;;;3.40;;
53022;SDS011;38913;44.338;11.206;2023-09-07T09:21:04;4.65;;;3.50;;
53022;SDS011;38913;44.338;11.206;2023-09-07T09:23:39;4.63;;;3.10;;
53022;SDS011;38913;44.338;11.206;2023-09-07T09:26:05;4.28;;;3.30;;
53022;SDS011;38913;44.338;11.206;2023-09-07T09:28:31;4.15;;;3.10;;
53022;SDS011;38913;44.338;11.206;2023-09-07T09:30:57;6.20;;;3.90;;
53022;SDS011;38913;44.338;11.206;2023-09-07T09:33:23;4.43;;;3.80;;
53022;SDS011;38913;44.338;11.206;2023-09-07T09:35:48;4.93;;;3.50;;
53022;SDS011;38913;44.338;11.206;2023-09-07T09:38:14;4.95;;;4.00;;
53022;SDS011;38913;44.338;11.206;2023-09-07T09:40:39;6.60;;;3.53;;
53022;SDS011;38913;44.338;11.206;2023-09-07T09:43:04;5.53;;;4.00;;
53022;SDS011;38913;44.338;11.206;2023-09-07T09:45:30;5.65;;;4.90;;
53022;SDS011;38913;44.338;11.206;2023-09-07T09:47:56;4.85;;;3.97;;
53022;SDS011;38913;44.338;11.206;2023-09-07T09:50:23;4.85;;;3.88;;
53022;SDS011;38913;44.338;11.206;2023-09-07T09:52:49;4.82;;;3.83;;
53022;SDS011;38913;44.338;11.206;2023-09-07T09:55:15;6.00;;;3.55;;
53022;SDS011;38913;44.338;11.206;2023-09-07T09:57:41;7.90;;;3.60;;
53022;SDS011;38913;44.338;11.206;2023-09-07T10:00:06;6.47;;;3.93;;
53022;SDS011;38913;44.338;11.206;2023-09-07T10:05:21;5.15;;;3.95;;
53022;SDS011;38913;44.338;11.206;2023-09-07T10:07:49;4.13;;;3.15;;
53022;SDS011;38913;44.338;11.206;2023-09-07T10:10:16;4.72;;;3.35;;
53022;SDS011;38913;44.338;11.206;2023-09-07T10:12:50;4.97;;;3.40;;
53022;SDS011;38913;44.338;11.206;2023-09-07T10:15:23;4.45;;;3.05;;
53022;SDS011;38913;44.338;11.206;2023-09-07T10:17:49;4.10;;;3.45;;
53022;SDS011;38913;44.338;11.206;2023-09-07T10:20:16;3.90;;;3.10;;
53022;SDS011;38913;44.338;11.206;2023-09-07T10:22:41;4.40;;;3.22;;
53022;SDS011;38913;44.338;11.206;2023-09-07T10:25:08;4.40;;;2.90;;
53022;SDS011;38913;44.338;11.206;2023-09-07T10:27:42;5.88;;;3.30;;
53022;SDS011;38913;44.338;11.206;2023-09-07T10:30:10;7.07;;;3.43;;
53022;SDS011;38913;44.338;11.206;2023-09-07T10:32:38;5.47;;;3.17;;
53022;SDS011;38913;44.338;11.206;2023-09-07T10:35:11;3.78;;;3.13;;
53022;SDS011;38913;44.338;11.206;2023-09-07T10:37:37;4.10;;;3.42;;
53022;SDS011;38913;44.338;11.206;2023-09-07T10:40:02;3.45;;;3.15;;
53022;SDS011;38913;44.338;11.206;2023-09-07T10:42:29;4.55;;;3.00;;
53022;SDS011;38913;44.338;11.206;2023-09-07T10:44:55;3.78;;;3.40;;
53022;SDS011;38913;44.338;11.206;2023-09-07T10:47:20;4.90;;;3.30;;
53022;SDS011;38913;44.338;11.206;2023-09-07T10:49:45;5.95;;;3.22;;
53022;SDS011;38913;44.338;11.206;2023-09-07T10:52:11;3.83;;;3.20;;
53022;SDS011;38913;44.338;11.206;2023-09-07T10:54:36;4.47;;;3.40;;
53022;SDS011;38913;44.338;11.206;2023-09-07T10:57:11;4.35;;;3.33;;
53022;SDS011;38913;44.338;11.206;2023-09-07T10:59:46;4.05;;;3.03;;
53022;SDS011;38913;44.338;11.206;2023-09-07T11:02:11;3.33;;;3.03;;
53022;SDS011;38913;44.338;11.206;2023-09-07T11:04:36;4.23;;;3.03;;
53022;SDS011;38913;44.338;11.206;2023-09-07T11:07:01;3.70;;;2.80;;
53022;SDS011;38913;44.338;11.206;2023-09-07T11:09:29;4.53;;;3.00;;
53022;SDS011;38913;44.338;11.206;2023-09-07T11:11:54;4.82;;;3.10;;
53022;SDS011;38913;44.338;11.206;2023-09-07T11:14:21;4.37;;;3.47;;
53022;SDS011;38913;44.338;11.206;2023-09-07T11:16:47;5.00;;;3.55;;
53022;SDS011;38913;44.338;11.206;2023-09-07T11:19:12;5.85;;;3.15;;
53022;SDS011;38913;44.338;11.206;2023-09-07T11:21:40;4.80;;;3.65;;
53022;SDS011;38913;44.338;11.206;2023-09-07T11:24:05;4.10;;;3.53;;
53022;SDS011;38913;44.338;11.206;2023-09-07T11:29:08;6.47;;;3.55;;
53022;SDS011;38913;44.338;11.206;2023-09-07T11:31:33;5.20;;;3.70;;
53022;SDS011;38913;44.338;11.206;2023-09-07T11:33:58;4.73;;;3.43;;
53022;SDS011;38913;44.338;11.206;2023-09-07T11:36:23;4.97;;;3.47;;
53022;SDS011;38913;44.338;11.206;2023-09-07T11:38:49;4.35;;;3.50;;
53022;SDS011;38913;44.338;11.206;2023-09-07T11:41:15;4.00;;;3.40;;
53022;SDS011;38913;44.338;11.206;2023-09-07T11:43:40;4.93;;;3.20;;
53022;SDS011;38913;44.338;11.206;2023-09-07T11:46:07;4.45;;;4.00;;
53022;SDS011;38913;44.338;11.206;2023-09-07T11:48:32;6.35;;;3.50;;
53022;SDS011;38913;44.338;11.206;2023-09-07T11:50:59;4.13;;;3.70;;
53022;SDS011;38913;44.338;11.206;2023-09-07T11:53:24;6.33;;;3.97;;
53022;SDS011;38913;44.338;11.206;2023-09-07T11:55:49;5.43;;;3.73;;
53022;SDS011;38913;44.338;11.206;2023-09-07T11:58:14;4.77;;;3.40;;
53022;SDS011;38913;44.338;11.206;2023-09-07T12:00:40;4.13;;;3.60;;
53022;SDS011;38913;44.338;11.206;2023-09-07T12:03:06;4.15;;;3.58;;
53022;SDS011;38913;44.338;11.206;2023-09-07T12:05:32;5.40;;;3.50;;
53022;SDS011;38913;44.338;11.206;2023-09-07T12:07:57;4.03;;;3.53;;
53022;SDS011;38913;44.338;11.206;2023-09-07T12:10:22;7.68;;;3.83;;
53022;SDS011;38913;44.338;11.206;2023-09-07T12:12:48;6.72;;;3.83;;
53022;SDS011;38913;44.338;11.206;2023-09-07T12:15:13;4.47;;;3.65;;
53022;SDS011;38913;44.338;11.206;2023-09-07T12:17:38;4.33;;;3.63;;
53022;SDS011;38913;44.338;11.206;2023-09-07T12:20:04;5.18;;;4.03;;
53022;SDS011;38913;44.338;11.206;2023-09-07T12:22:35;6.10;;;4.15;;
53022;SDS011;38913;44.338;11.206;2023-09-07T12:25:02;8.13;;;4.18;;
53022;SDS011;38913;44.338;11.206;2023-09-07T12:27:27;5.60;;;3.53;;
53022;SDS011;38913;44.338;11.206;2023-09-07T12:29:53;5.40;;;4.23;;
53022;SDS011;38913;44.338;11.206;2023-09-07T12:32:18;4.60;;;4.00;;
53022;SDS011;38913;44.338;11.206;2023-09-07T12:34:43;4.40;;;4.00;;
53022;SDS011;38913;44.338;11.206;2023-09-07T12:37:08;4.37;;;3.90;;
53022;SDS011;38913;44.338;11.206;2023-09-07T12:39:34;4.10;;;3.70;;
53022;SDS011;38913;44.338;11.206;2023-09-07T12:41:59;5.07;;;4.00;;
53022;SDS011;38913;44.338;11.206;2023-09-07T12:44:24;5.30;;;3.92;;
53022;SDS011;38913;44.338;11.206;2023-09-07T12:46:50;5.77;;;4.23;;
53022;SDS011;38913;44.338;11.206;2023-09-07T12:49:15;7.43;;;4.20;;
53022;SDS011;38913;44.338;11.206;2023-09-07T12:51:40;5.80;;;4.10;;
53022;SDS011;38913;44.338;11.206;2023-09-07T12:54:06;5.00;;;3.50;;
53022;SDS011;38913;44.338;11.206;2023-09-07T12:56:31;4.37;;;3.77;;
53022;SDS011;38913;44.338;11.206;2023-09-07T12:58:56;5.27;;;3.53;;
53022;SDS011;38913;44.338;11.206;2023-09-07T13:01:24;5.72;;;3.78;;
53022;SDS011;38913;44.338;11.206;2023-09-07T13:03:49;4.73;;;3.83;;
53022;SDS011;38913;44.338;11.206;2023-09-07T13:06:14;4.30;;;3.80;;
53022;SDS011;38913;44.338;11.206;2023-09-07T13:08:42;5.18;;;3.50;;
53022;SDS011;38913;44.338;11.206;2023-09-07T13:11:07;5.18;;;3.60;;
53022;SDS011;38913;44.338;11.206;2023-09-07T13:13:33;4.03;;;3.53;;
53022;SDS011;38913;44.338;11.206;2023-09-07T13:15:58;3.97;;;3.13;;
53022;SDS011;38913;44.338;11.206;2023-09-07T13:18:23;3.70;;;3.40;;
53022;SDS011;38913;44.338;11.206;2023-09-07T13:20:49;4.68;;;3.25;;
53022;SDS011;38913;44.338;11.206;2023-09-07T13:23:16;4.55;;;3.70;;
53022;SDS011;38913;44.338;11.206;2023-09-07T13:25:43;4.13;;;3.63;;
53022;SDS011;38913;44.338;11.206;2023-09-07T13:28:08;4.00;;;3.60;;
53022;SDS011;38913;44.338;11.206;2023-09-07T13:30:33;5.20;;;3.97;;
53022;SDS011;38913;44.338;11.206;2023-09-07T13:32:58;5.03;;;3.95;;
53022;SDS011;38913;44.338;11.206;2023-09-07T13:35:25;5.35;;;3.70;;
53022;SDS011;38913;44.338;11.206;2023-09-07T13:37:50;4.43;;;3.97;;
53022;SDS011;38913;44.338;11.206;2023-09-07T13:40:15;3.63;;;3.33;;
53022;SDS011;38913;44.338;11.206;2023-09-07T13:42:41;5.95;;;3.40;;
53022;SDS011;38913;44.338;11.206;2023-09-07T13:45:07;4.43;;;3.00;;
53022;SDS011;38913;44.338;11.206;2023-09-07T13:47:33;5.22;;;3.28;;
53022;SDS011;38913;44.338;11.206;2023-09-07T13:49:58;4.78;;;3.17;;
53022;SDS011;38913;44.338;11.206;2023-09-07T13:52:23;3.70;;;3.10;;
53022;SDS011;38913;44.338;11.206;2023-09-07T13:54:49;4.60;;;3.10;;
53022;SDS011;38913;44.338;11.206;2023-09-07T13:57:14;4.93;;;3.00;;
53022;SDS011;38913;44.338;11.206;2023-09-07T13:59:39;4.97;;;3.00;;
53022;SDS011;38913;44.338;11.206;2023-09-07T14:02:05;3.47;;;3.07;;
53022;SDS011;38913;44.338;11.206;2023-09-07T14:04:30;4.50;;;3.03;;
53022;SDS011;38913;44.338;11.206;2023-09-07T14:06:56;4.28;;;2.80;;
53022;SDS011;38913;44.338;11.206;2023-09-07T14:09:21;4.15;;;3.05;;
53022;SDS011;38913;44.338;11.206;2023-09-07T14:11:48;3.55;;;2.85;;
53022;SDS011;38913;44.338;11.206;2023-09-07T14:14:13;3.30;;;2.93;;
53022;SDS011;38913;44.338;11.206;2023-09-07T14:16:39;3.30;;;3.00;;
53022;SDS011;38913;44.338;11.206;2023-09-07T14:19:04;3.93;;;3.20;;
53022;SDS011;38913;44.338;11.206;2023-09-07T14:21:30;3.97;;;2.90;;
53022;SDS011;38913;44.338;11.206;2023-09-07T14:23:55;4.10;;;2.97;;
53022;SDS011;38913;44.338;11.206;2023-09-07T14:26:20;3.42;;;3.10;;
53022;SDS011;38913;44.338;11.206;2023-09-07T14:28:45;3.70;;;3.33;;
53022;SDS011;38913;44.338;11.206;2023-09-07T14:31:11;3.67;;;2.90;;